sensor_id;sensor_type;location;lat;lon;timestamp;temperature;humidity
18648;DHT22;9453;50.294;18.644;2023-06-26T04:01:04;15.10;99.90
18648;DHT22;9453;50.294;18.644;2023-06-26T04:03:31;15.20;99.90
18648;DHT22;9453;50.294;18.644;2023-06-26T04:06:00;15.20;99.90
18648;DHT22;9453;50.294;18.644;2023-06-26T04:08:28;15.30;99.90
18648;DHT22;9453;50.294;18.644;2023-06-26T04:10:55;15.40;99.90
18648;DHT22;9453;50.294;18.644;2023-06-26T04:13:24;15.50;99.90
18648;DHT22;9453;50.294;18.644;2023-06-26T04:15:51;15.60;99.90
18648;DHT22;9453;50.294;18.644;2023-06-26T04:18:19;15.60;99.90
18648;DHT22;9453;50.294;18.644;2023-06-26T04:21:06;15.60;99.90
18648;DHT22;9453;50.294;18.644;2023-06-26T04:23:34;15.70;99.90
18648;DHT22;9453;50.294;18.644;2023-06-26T04:26:01;15.80;99.90
18648;DHT22;9453;50.294;18.644;2023-06-26T04:28:30;15.90;99.90
18648;DHT22;9453;50.294;18.644;2023-06-26T04:30:57;15.90;99.90
18648;DHT22;9453;50.294;18.644;2023-06-26T04:33:26;16.00;99.90
18648;DHT22;9453;50.294;18.644;2023-06-26T04:35:53;16.00;99.90
18648;DHT22;9453;50.294;18.644;2023-06-26T04:38:20;16.10;99.90
18648;DHT22;9453;50.294;18.644;2023-06-26T04:40:47;16.20;99.90
18648;DHT22;9453;50.294;18.644;2023-06-26T04:43:14;16.30;99.90
18648;DHT22;9453;50.294;18.644;2023-06-26T04:45:42;16.40;99.90
18648;DHT22;9453;50.294;18.644;2023-06-26T04:48:09;16.40;99.90
18648;DHT22;9453;50.294;18.644;2023-06-26T04:50:38;16.50;99.90
18648;DHT22;9453;50.294;18.644;2023-06-26T04:53:05;16.60;99.90
18648;DHT22;9453;50.294;18.644;2023-06-26T04:55:32;16.70;99.90
18648;DHT22;9453;50.294;18.644;2023-06-26T04:57:59;16.80;99.90
18648;DHT22;9453;50.294;18.644;2023-06-26T05:00:26;16.90;99.90
18648;DHT22;9453;50.294;18.644;2023-06-26T05:02:53;17.00;99.90
18648;DHT22;9453;50.294;18.644;2023-06-26T05:05:26;17.10;99.90
18648;DHT22;9453;50.294;18.644;2023-06-26T05:07:55;17.20;99.90
18648;DHT22;9453;50.294;18.644;2023-06-26T05:10:23;17.30;99.90
18648;DHT22;9453;50.294;18.644;2023-06-26T05:12:50;17.30;99.90
18648;DHT22;9453;50.294;18.644;2023-06-26T05:15:17;17.50;99.90
18648;DHT22;9453;50.294;18.644;2023-06-26T05:17:44;17.60;99.90
18648;DHT22;9453;50.294;18.644;2023-06-26T05:20:11;17.60;99.90
18648;DHT22;9453;50.294;18.644;2023-06-26T05:22:39;17.70;99.90
18648;DHT22;9453;50.294;18.644;2023-06-26T05:25:09;17.80;99.90
18648;DHT22;9453;50.294;18.644;2023-06-26T05:27:37;17.80;99.90
18648;DHT22;9453;50.294;18.644;2023-06-26T05:30:05;17.90;99.90
18648;DHT22;9453;50.294;18.644;2023-06-26T05:32:34;18.00;99.90
18648;DHT22;9453;50.294;18.644;2023-06-26T05:35:03;18.10;99.90
18648;DHT22;9453;50.294;18.644;2023-06-26T05:37:31;18.20;99.90
18648;DHT22;9453;50.294;18.644;2023-06-26T05:39:59;18.30;99.90
18648;DHT22;9453;50.294;18.644;2023-06-26T05:42:28;18.30;99.90
18648;DHT22;9453;50.294;18.644;2023-06-26T05:44:55;18.40;99.90
18648;DHT22;9453;50.294;18.644;2023-06-26T05:47:22;18.50;99.90
18648;DHT22;9453;50.294;18.644;2023-06-26T05:49:49;18.60;99.90
18648;DHT22;9453;50.294;18.644;2023-06-26T05:52:17;18.70;99.90
18648;DHT22;9453;50.294;18.644;2023-06-26T05:54:44;18.80;99.90
18648;DHT22;9453;50.294;18.644;2023-06-26T05:57:13;18.80;99.90
18648;DHT22;9453;50.294;18.644;2023-06-26T05:59:43;18.90;99.90
18648;DHT22;9453;50.294;18.644;2023-06-26T06:02:10;19.00;99.90
18648;DHT22;9453;50.294;18.644;2023-06-26T06:04:37;19.10;99.90
18648;DHT22;9453;50.294;18.644;2023-06-26T06:07:05;19.20;99.90
18648;DHT22;9453;50.294;18.644;2023-06-26T06:09:32;19.30;99.90
18648;DHT22;9453;50.294;18.644;2023-06-26T06:11:59;19.40;99.90
18648;DHT22;9453;50.294;18.644;2023-06-26T06:14:26;19.50;99.90
18648;DHT22;9453;50.294;18.644;2023-06-26T06:16:55;19.60;99.90
18648;DHT22;9453;50.294;18.644;2023-06-26T06:19:22;19.60;99.90
18648;DHT22;9453;50.294;18.644;2023-06-26T06:21:49;19.70;99.90
18648;DHT22;9453;50.294;18.644;2023-06-26T06:24:16;19.80;99.90
18648;DHT22;9453;50.294;18.644;2023-06-26T06:26:43;19.90;99.90
18648;DHT22;9453;50.294;18.644;2023-06-26T06:29:10;20.00;99.90
18648;DHT22;9453;50.294;18.644;2023-06-26T06:31:37;20.10;99.90
18648;DHT22;9453;50.294;18.644;2023-06-26T06:34:05;20.20;99.90
18648;DHT22;9453;50.294;18.644;2023-06-26T06:36:32;20.20;99.90
18648;DHT22;9453;50.294;18.644;2023-06-26T06:38:59;20.30;99.90
18648;DHT22;9453;50.294;18.644;2023-06-26T06:41:26;20.40;99.90
18648;DHT22;9453;50.294;18.644;2023-06-26T06:43:53;20.40;99.90
18648;DHT22;9453;50.294;18.644;2023-06-26T06:46:20;20.50;99.90
18648;DHT22;9453;50.294;18.644;2023-06-26T06:48:47;20.60;99.90
18648;DHT22;9453;50.294;18.644;2023-06-26T06:51:15;20.70;99.90
18648;DHT22;9453;50.294;18.644;2023-06-26T06:53:42;20.70;99.40
18648;DHT22;9453;50.294;18.644;2023-06-26T06:56:09;20.80;98.50
18648;DHT22;9453;50.294;18.644;2023-06-26T06:58:36;20.90;97.90
18648;DHT22;9453;50.294;18.644;2023-06-26T07:01:03;20.90;97.80
18648;DHT22;9453;50.294;18.644;2023-06-26T07:03:29;21.10;98.50
18648;DHT22;9453;50.294;18.644;2023-06-26T07:05:56;21.10;98.70
18648;DHT22;9453;50.294;18.644;2023-06-26T07:08:25;21.20;98.20
18648;DHT22;9453;50.294;18.644;2023-06-26T07:10:52;21.20;97.50
18648;DHT22;9453;50.294;18.644;2023-06-26T07:13:18;21.40;97.00
18648;DHT22;9453;50.294;18.644;2023-06-26T07:15:45;21.40;92.20
18648;DHT22;9453;50.294;18.644;2023-06-26T07:18:13;21.50;92.00
18648;DHT22;9453;50.294;18.644;2023-06-26T07:20:41;21.60;92.60
18648;DHT22;9453;50.294;18.644;2023-06-26T07:23:08;21.70;92.00
18648;DHT22;9453;50.294;18.644;2023-06-26T07:25:36;21.70;92.10
18648;DHT22;9453;50.294;18.644;2023-06-26T07:28:05;21.80;91.10
18648;DHT22;9453;50.294;18.644;2023-06-26T07:30:36;21.90;89.60
18648;DHT22;9453;50.294;18.644;2023-06-26T07:33:03;22.00;88.60
18648;DHT22;9453;50.294;18.644;2023-06-26T07:35:30;22.00;88.00
18648;DHT22;9453;50.294;18.644;2023-06-26T07:37:57;22.10;88.40
18648;DHT22;9453;50.294;18.644;2023-06-26T07:40:24;22.20;89.10
18648;DHT22;9453;50.294;18.644;2023-06-26T07:42:52;22.30;90.00
18648;DHT22;9453;50.294;18.644;2023-06-26T07:45:20;22.30;89.10
18648;DHT22;9453;50.294;18.644;2023-06-26T07:47:46;22.40;87.10
18648;DHT22;9453;50.294;18.644;2023-06-26T07:50:13;22.50;86.00
18648;DHT22;9453;50.294;18.644;2023-06-26T07:52:45;22.50;84.80
18648;DHT22;9453;50.294;18.644;2023-06-26T07:55:11;22.60;84.50
18648;DHT22;9453;50.294;18.644;2023-06-26T07:57:38;22.70;82.20
18648;DHT22;9453;50.294;18.644;2023-06-26T08:00:08;22.70;80.40
18648;DHT22;9453;50.294;18.644;2023-06-26T08:02:35;22.80;80.30
18648;DHT22;9453;50.294;18.644;2023-06-26T08:05:02;22.80;79.40
18648;DHT22;9453;50.294;18.644;2023-06-26T08:07:29;22.80;77.40
18648;DHT22;9453;50.294;18.644;2023-06-26T08:09:56;22.90;76.50
18648;DHT22;9453;50.294;18.644;2023-06-26T08:12:23;23.00;76.50
18648;DHT22;9453;50.294;18.644;2023-06-26T08:14:50;23.00;77.00
18648;DHT22;9453;50.294;18.644;2023-06-26T08:17:18;23.00;76.80
18648;DHT22;9453;50.294;18.644;2023-06-26T08:19:45;23.10;76.80
18648;DHT22;9453;50.294;18.644;2023-06-26T08:22:12;23.10;74.40
18648;DHT22;9453;50.294;18.644;2023-06-26T08:24:39;23.10;74.00
18648;DHT22;9453;50.294;18.644;2023-06-26T08:27:07;23.20;73.80
18648;DHT22;9453;50.294;18.644;2023-06-26T08:29:34;23.20;74.00
18648;DHT22;9453;50.294;18.644;2023-06-26T08:32:01;23.30;74.40
18648;DHT22;9453;50.294;18.644;2023-06-26T08:34:30;23.20;73.20
18648;DHT22;9453;50.294;18.644;2023-06-26T08:36:57;23.30;74.10
18648;DHT22;9453;50.294;18.644;2023-06-26T08:39:25;23.40;74.60
18648;DHT22;9453;50.294;18.644;2023-06-26T08:41:52;23.50;73.40
18648;DHT22;9453;50.294;18.644;2023-06-26T08:44:19;23.70;73.90
18648;DHT22;9453;50.294;18.644;2023-06-26T08:46:50;23.70;72.70
18648;DHT22;9453;50.294;18.644;2023-06-26T08:49:21;23.90;71.50
18648;DHT22;9453;50.294;18.644;2023-06-26T08:51:56;24.00;70.40
18648;DHT22;9453;50.294;18.644;2023-06-26T08:54:30;24.20;69.40
18648;DHT22;9453;50.294;18.644;2023-06-26T08:57:00;24.30;69.60
18648;DHT22;9453;50.294;18.644;2023-06-26T08:59:27;24.40;70.30
18648;DHT22;9453;50.294;18.644;2023-06-26T09:01:55;24.50;70.80
18648;DHT22;9453;50.294;18.644;2023-06-26T09:04:22;24.60;71.00
18648;DHT22;9453;50.294;18.644;2023-06-26T09:06:50;24.40;68.60
18648;DHT22;9453;50.294;18.644;2023-06-26T09:09:17;24.30;68.40
18648;DHT22;9453;50.294;18.644;2023-06-26T09:11:44;24.20;68.70
18648;DHT22;9453;50.294;18.644;2023-06-26T09:14:12;24.40;68.60
18648;DHT22;9453;50.294;18.644;2023-06-26T09:16:40;24.60;68.10
18648;DHT22;9453;50.294;18.644;2023-06-26T09:19:11;24.70;66.10
18648;DHT22;9453;50.294;18.644;2023-06-26T09:21:39;24.80;66.20
18648;DHT22;9453;50.294;18.644;2023-06-26T09:24:09;24.90;61.20
18648;DHT22;9453;50.294;18.644;2023-06-26T09:26:37;25.00;62.30
18648;DHT22;9453;50.294;18.644;2023-06-26T09:29:05;25.10;61.70
18648;DHT22;9453;50.294;18.644;2023-06-26T09:31:33;25.00;60.00
18648;DHT22;9453;50.294;18.644;2023-06-26T09:34:01;25.10;59.90
18648;DHT22;9453;50.294;18.644;2023-06-26T09:36:30;25.20;59.50
18648;DHT22;9453;50.294;18.644;2023-06-26T09:38:59;25.20;58.30
18648;DHT22;9453;50.294;18.644;2023-06-26T09:41:28;25.20;58.90
18648;DHT22;9453;50.294;18.644;2023-06-26T09:44:00;25.20;59.00
18648;DHT22;9453;50.294;18.644;2023-06-26T09:46:28;25.30;59.90
18648;DHT22;9453;50.294;18.644;2023-06-26T09:49:01;25.40;60.80
18648;DHT22;9453;50.294;18.644;2023-06-26T09:51:30;25.50;62.20
18648;DHT22;9453;50.294;18.644;2023-06-26T09:53:58;25.50;61.00
18648;DHT22;9453;50.294;18.644;2023-06-26T09:56:25;25.40;60.60
18648;DHT22;9453;50.294;18.644;2023-06-26T09:58:55;25.20;61.20
18648;DHT22;9453;50.294;18.644;2023-06-26T10:01:23;25.00;61.90
18648;DHT22;9453;50.294;18.644;2023-06-26T10:03:50;24.80;63.80
18648;DHT22;9453;50.294;18.644;2023-06-26T10:06:19;24.60;62.80
18648;DHT22;9453;50.294;18.644;2023-06-26T10:08:48;24.60;59.40
18648;DHT22;9453;50.294;18.644;2023-06-26T10:11:19;24.70;59.60
18648;DHT22;9453;50.294;18.644;2023-06-26T10:13:49;24.80;59.70
18648;DHT22;9453;50.294;18.644;2023-06-26T10:16:23;25.00;59.90
18648;DHT22;9453;50.294;18.644;2023-06-26T10:18:53;25.10;58.90
18648;DHT22;9453;50.294;18.644;2023-06-26T10:21:22;25.20;58.40
18648;DHT22;9453;50.294;18.644;2023-06-26T10:23:52;25.40;57.60
18648;DHT22;9453;50.294;18.644;2023-06-26T10:26:21;25.50;57.60
18648;DHT22;9453;50.294;18.644;2023-06-26T10:28:49;25.60;58.10
18648;DHT22;9453;50.294;18.644;2023-06-26T10:31:20;25.60;57.70
18648;DHT22;9453;50.294;18.644;2023-06-26T10:33:48;25.70;59.30
18648;DHT22;9453;50.294;18.644;2023-06-26T10:36:16;25.70;59.00
18648;DHT22;9453;50.294;18.644;2023-06-26T10:38:52;25.70;58.70
18648;DHT22;9453;50.294;18.644;2023-06-26T10:41:20;25.70;58.40
18648;DHT22;9453;50.294;18.644;2023-06-26T10:44:04;25.80;59.50
18648;DHT22;9453;50.294;18.644;2023-06-26T10:46:48;25.80;59.80
18648;DHT22;9453;50.294;18.644;2023-06-26T10:49:17;25.90;59.20
18648;DHT22;9453;50.294;18.644;2023-06-26T10:51:48;25.90;57.80
18648;DHT22;9453;50.294;18.644;2023-06-26T10:54:16;25.90;57.40
18648;DHT22;9453;50.294;18.644;2023-06-26T10:56:45;25.90;57.70
18648;DHT22;9453;50.294;18.644;2023-06-26T10:59:17;26.00;57.50
18648;DHT22;9453;50.294;18.644;2023-06-26T11:01:47;26.00;56.70
18648;DHT22;9453;50.294;18.644;2023-06-26T11:04:36;26.00;57.20
18648;DHT22;9453;50.294;18.644;2023-06-26T11:07:19;26.10;55.50
18648;DHT22;9453;50.294;18.644;2023-06-26T11:09:56;26.20;57.00
18648;DHT22;9453;50.294;18.644;2023-06-26T11:12:37;26.30;56.60
18648;DHT22;9453;50.294;18.644;2023-06-26T11:15:08;26.50;56.60
18648;DHT22;9453;50.294;18.644;2023-06-26T11:17:37;26.50;56.40
18648;DHT22;9453;50.294;18.644;2023-06-26T11:20:05;26.60;57.40
18648;DHT22;9453;50.294;18.644;2023-06-26T11:22:36;26.50;56.80
18648;DHT22;9453;50.294;18.644;2023-06-26T11:25:04;26.60;57.40
18648;DHT22;9453;50.294;18.644;2023-06-26T11:27:32;26.60;57.60
18648;DHT22;9453;50.294;18.644;2023-06-26T11:29:59;26.60;56.60
18648;DHT22;9453;50.294;18.644;2023-06-26T11:32:27;26.50;56.00
18648;DHT22;9453;50.294;18.644;2023-06-26T11:34:56;26.40;55.90
18648;DHT22;9453;50.294;18.644;2023-06-26T11:37:24;26.40;56.90
18648;DHT22;9453;50.294;18.644;2023-06-26T11:39:52;26.40;56.80
18648;DHT22;9453;50.294;18.644;2023-06-26T11:42:20;26.40;56.80
18648;DHT22;9453;50.294;18.644;2023-06-26T11:44:47;26.40;56.60
18648;DHT22;9453;50.294;18.644;2023-06-26T11:47:15;26.30;56.60
18648;DHT22;9453;50.294;18.644;2023-06-26T11:49:43;26.30;57.20
18648;DHT22;9453;50.294;18.644;2023-06-26T11:52:15;26.30;56.20
18648;DHT22;9453;50.294;18.644;2023-06-26T11:54:42;26.40;56.30
18648;DHT22;9453;50.294;18.644;2023-06-26T11:57:14;26.40;54.50
18648;DHT22;9453;50.294;18.644;2023-06-26T11:59:41;26.40;54.50
18648;DHT22;9453;50.294;18.644;2023-06-26T12:02:09;26.40;53.20
18648;DHT22;9453;50.294;18.644;2023-06-26T12:04:38;26.40;54.00
18648;DHT22;9453;50.294;18.644;2023-06-26T12:07:08;26.40;54.60
18648;DHT22;9453;50.294;18.644;2023-06-26T12:09:40;26.50;55.50
18648;DHT22;9453;50.294;18.644;2023-06-26T12:12:10;26.50;55.10
18648;DHT22;9453;50.294;18.644;2023-06-26T12:14:37;26.60;55.00
18648;DHT22;9453;50.294;18.644;2023-06-26T12:17:10;26.60;54.30
18648;DHT22;9453;50.294;18.644;2023-06-26T12:19:38;26.60;54.50
18648;DHT22;9453;50.294;18.644;2023-06-26T12:22:09;26.60;54.70
18648;DHT22;9453;50.294;18.644;2023-06-26T12:24:39;26.60;55.00
18648;DHT22;9453;50.294;18.644;2023-06-26T12:27:09;26.60;54.80
18648;DHT22;9453;50.294;18.644;2023-06-26T12:29:39;26.60;54.60
18648;DHT22;9453;50.294;18.644;2023-06-26T12:32:09;26.60;54.80
18648;DHT22;9453;50.294;18.644;2023-06-26T12:34:37;26.70;55.00
18648;DHT22;9453;50.294;18.644;2023-06-26T12:37:05;26.70;55.20
18648;DHT22;9453;50.294;18.644;2023-06-26T12:39:47;26.80;55.10
18648;DHT22;9453;50.294;18.644;2023-06-26T12:42:16;27.00;52.40
18648;DHT22;9453;50.294;18.644;2023-06-26T12:44:43;27.20;52.90
18648;DHT22;9453;50.294;18.644;2023-06-26T12:47:10;27.30;52.60
18648;DHT22;9453;50.294;18.644;2023-06-26T12:49:40;27.40;52.10
18648;DHT22;9453;50.294;18.644;2023-06-26T12:52:09;27.60;52.80
18648;DHT22;9453;50.294;18.644;2023-06-26T12:54:37;27.70;53.90
18648;DHT22;9453;50.294;18.644;2023-06-26T12:57:07;27.90;51.90
18648;DHT22;9453;50.294;18.644;2023-06-26T12:59:36;28.10;51.50
18648;DHT22;9453;50.294;18.644;2023-06-26T13:02:03;28.20;51.20
18648;DHT22;9453;50.294;18.644;2023-06-26T13:04:31;28.30;49.90
18648;DHT22;9453;50.294;18.644;2023-06-26T13:06:58;28.50;49.80
18648;DHT22;9453;50.294;18.644;2023-06-26T13:09:25;28.50;49.00
18648;DHT22;9453;50.294;18.644;2023-06-26T13:11:53;28.70;48.20
18648;DHT22;9453;50.294;18.644;2023-06-26T13:14:22;28.70;48.60
18648;DHT22;9453;50.294;18.644;2023-06-26T13:16:49;28.80;48.00
18648;DHT22;9453;50.294;18.644;2023-06-26T13:19:16;28.90;49.00
18648;DHT22;9453;50.294;18.644;2023-06-26T13:21:43;29.10;48.80
18648;DHT22;9453;50.294;18.644;2023-06-26T13:24:10;29.20;48.10
18648;DHT22;9453;50.294;18.644;2023-06-26T13:26:37;29.40;48.40
18648;DHT22;9453;50.294;18.644;2023-06-26T13:29:04;29.60;48.40
18648;DHT22;9453;50.294;18.644;2023-06-26T13:31:32;29.80;47.40
18648;DHT22;9453;50.294;18.644;2023-06-26T13:34:01;29.80;48.10
18648;DHT22;9453;50.294;18.644;2023-06-26T13:36:29;29.90;47.60
18648;DHT22;9453;50.294;18.644;2023-06-26T13:38:56;29.90;46.20
18648;DHT22;9453;50.294;18.644;2023-06-26T13:41:23;29.90;47.10
18648;DHT22;9453;50.294;18.644;2023-06-26T13:43:50;30.00;47.70
18648;DHT22;9453;50.294;18.644;2023-06-26T13:46:17;30.00;45.90
18648;DHT22;9453;50.294;18.644;2023-06-26T13:48:45;30.10;46.40
18648;DHT22;9453;50.294;18.644;2023-06-26T13:51:12;30.20;45.60
18648;DHT22;9453;50.294;18.644;2023-06-26T13:53:39;30.30;46.20
18648;DHT22;9453;50.294;18.644;2023-06-26T13:56:06;30.40;44.10
18648;DHT22;9453;50.294;18.644;2023-06-26T13:58:35;30.40;43.70
18648;DHT22;9453;50.294;18.644;2023-06-26T14:01:04;30.60;43.40
18648;DHT22;9453;50.294;18.644;2023-06-26T14:03:31;30.70;44.10
18648;DHT22;9453;50.294;18.644;2023-06-26T14:05:59;31.00;44.30
18648;DHT22;9453;50.294;18.644;2023-06-26T14:08:26;31.20;44.70
18648;DHT22;9453;50.294;18.644;2023-06-26T14:10:53;31.30;43.80
18648;DHT22;9453;50.294;18.644;2023-06-26T14:13:20;31.50;44.20
18648;DHT22;9453;50.294;18.644;2023-06-26T14:15:47;31.80;44.90
18648;DHT22;9453;50.294;18.644;2023-06-26T14:18:14;31.90;44.10
18648;DHT22;9453;50.294;18.644;2023-06-26T14:20:43;32.00;44.10
18648;DHT22;9453;50.294;18.644;2023-06-26T14:23:11;32.10;44.20
18648;DHT22;9453;50.294;18.644;2023-06-26T14:25:38;32.30;43.60
18648;DHT22;9453;50.294;18.644;2023-06-26T14:28:05;32.20;42.60
18648;DHT22;9453;50.294;18.644;2023-06-26T14:30:32;32.40;43.40
18648;DHT22;9453;50.294;18.644;2023-06-26T14:32:59;32.60;43.30
18648;DHT22;9453;50.294;18.644;2023-06-26T14:35:26;32.70;42.70
18648;DHT22;9453;50.294;18.644;2023-06-26T14:37:53;32.90;43.40
18648;DHT22;9453;50.294;18.644;2023-06-26T14:40:22;33.00;42.10
18648;DHT22;9453;50.294;18.644;2023-06-26T14:42:49;33.10;42.80
18648;DHT22;9453;50.294;18.644;2023-06-26T14:45:16;33.20;42.20
18648;DHT22;9453;50.294;18.644;2023-06-26T14:47:43;33.30;42.50
18648;DHT22;9453;50.294;18.644;2023-06-26T14:50:10;33.30;42.90
18648;DHT22;9453;50.294;18.644;2023-06-26T14:52:37;33.30;42.00
18648;DHT22;9453;50.294;18.644;2023-06-26T14:55:04;33.40;42.40
18648;DHT22;9453;50.294;18.644;2023-06-26T14:57:33;33.40;42.70
18648;DHT22;9453;50.294;18.644;2023-06-26T15:00:00;33.60;42.00
18648;DHT22;9453;50.294;18.644;2023-06-26T15:02:26;33.40;41.20
18648;DHT22;9453;50.294;18.644;2023-06-26T15:04:53;33.50;43.00
18648;DHT22;9453;50.294;18.644;2023-06-26T15:07:20;33.60;42.90
18648;DHT22;9453;50.294;18.644;2023-06-26T15:09:47;33.80;42.50
18648;DHT22;9453;50.294;18.644;2023-06-26T15:12:14;33.90;42.50
18648;DHT22;9453;50.294;18.644;2023-06-26T15:14:43;34.20;41.40
18648;DHT22;9453;50.294;18.644;2023-06-26T15:17:09;34.40;42.00
18648;DHT22;9453;50.294;18.644;2023-06-26T15:19:37;34.50;41.20
18648;DHT22;9453;50.294;18.644;2023-06-26T15:22:10;34.60;41.70
18648;DHT22;9453;50.294;18.644;2023-06-26T15:24:38;34.70;41.70
18648;DHT22;9453;50.294;18.644;2023-06-26T15:27:05;34.70;41.10
18648;DHT22;9453;50.294;18.644;2023-06-26T15:29:32;34.80;39.70
18648;DHT22;9453;50.294;18.644;2023-06-26T15:32:00;34.70;39.20
18648;DHT22;9453;50.294;18.644;2023-06-26T15:34:27;34.50;39.30
18648;DHT22;9453;50.294;18.644;2023-06-26T15:36:54;34.30;39.00
18648;DHT22;9453;50.294;18.644;2023-06-26T15:39:21;34.40;40.10
18648;DHT22;9453;50.294;18.644;2023-06-26T15:41:48;34.50;41.00
18648;DHT22;9453;50.294;18.644;2023-06-26T15:44:15;34.70;40.40
18648;DHT22;9453;50.294;18.644;2023-06-26T15:46:42;35.00;39.90
18648;DHT22;9453;50.294;18.644;2023-06-26T15:49:10;35.10;40.20
18648;DHT22;9453;50.294;18.644;2023-06-26T15:51:37;34.90;39.70
18648;DHT22;9453;50.294;18.644;2023-06-26T15:54:04;34.90;39.60
18648;DHT22;9453;50.294;18.644;2023-06-26T15:56:31;34.80;39.90
18648;DHT22;9453;50.294;18.644;2023-06-26T15:58:59;34.50;39.10
18648;DHT22;9453;50.294;18.644;2023-06-26T16:01:25;34.20;39.90
18648;DHT22;9453;50.294;18.644;2023-06-26T16:03:52;33.70;40.10
18648;DHT22;9453;50.294;18.644;2023-06-26T16:06:21;33.10;40.50
18648;DHT22;9453;50.294;18.644;2023-06-26T16:08:48;32.60;41.70
18648;DHT22;9453;50.294;18.644;2023-06-26T16:11:17;32.10;42.40
18648;DHT22;9453;50.294;18.644;2023-06-26T16:13:45;31.70;42.80
18648;DHT22;9453;50.294;18.644;2023-06-26T16:16:12;31.30;43.10
18648;DHT22;9453;50.294;18.644;2023-06-26T16:18:40;30.80;43.30
18648;DHT22;9453;50.294;18.644;2023-06-26T16:21:07;30.50;44.70
18648;DHT22;9453;50.294;18.644;2023-06-26T16:23:35;30.20;45.20
18648;DHT22;9453;50.294;18.644;2023-06-26T16:26:02;30.00;46.30
18648;DHT22;9453;50.294;18.644;2023-06-26T16:28:29;29.70;46.70
18648;DHT22;9453;50.294;18.644;2023-06-26T16:30:56;29.40;47.50
18648;DHT22;9453;50.294;18.644;2023-06-26T16:33:23;29.40;48.60
18648;DHT22;9453;50.294;18.644;2023-06-26T16:35:50;29.20;48.30
18648;DHT22;9453;50.294;18.644;2023-06-26T16:38:17;29.00;48.40
18648;DHT22;9453;50.294;18.644;2023-06-26T16:40:45;28.80;48.70
18648;DHT22;9453;50.294;18.644;2023-06-26T16:43:12;28.70;49.60
18648;DHT22;9453;50.294;18.644;2023-06-26T16:45:39;28.50;49.60
18648;DHT22;9453;50.294;18.644;2023-06-26T16:48:06;28.50;49.70
18648;DHT22;9453;50.294;18.644;2023-06-26T16:50:33;28.30;50.20
18648;DHT22;9453;50.294;18.644;2023-06-26T16:53:00;28.10;50.30
18648;DHT22;9453;50.294;18.644;2023-06-26T16:55:27;28.00;51.00
18648;DHT22;9453;50.294;18.644;2023-06-26T16:57:55;27.90;51.30
18648;DHT22;9453;50.294;18.644;2023-06-26T17:00:22;27.90;51.70
18648;DHT22;9453;50.294;18.644;2023-06-26T17:02:49;27.80;52.30
18648;DHT22;9453;50.294;18.644;2023-06-26T17:05:16;27.80;52.70
18648;DHT22;9453;50.294;18.644;2023-06-26T17:07:43;27.70;52.80
18648;DHT22;9453;50.294;18.644;2023-06-26T17:10:10;27.80;52.90
18648;DHT22;9453;50.294;18.644;2023-06-26T17:12:37;28.20;52.90
18648;DHT22;9453;50.294;18.644;2023-06-26T17:15:07;28.30;52.10
18648;DHT22;9453;50.294;18.644;2023-06-26T17:17:34;28.10;51.40
18648;DHT22;9453;50.294;18.644;2023-06-26T17:20:01;28.00;51.40
18648;DHT22;9453;50.294;18.644;2023-06-26T17:22:33;27.90;51.70
18648;DHT22;9453;50.294;18.644;2023-06-26T17:25:00;27.70;51.70
18648;DHT22;9453;50.294;18.644;2023-06-26T17:27:30;27.50;51.70
18648;DHT22;9453;50.294;18.644;2023-06-26T17:29:57;27.30;52.40
18648;DHT22;9453;50.294;18.644;2023-06-26T17:32:25;27.20;52.80
18648;DHT22;9453;50.294;18.644;2023-06-26T17:34:52;27.10;53.50
18648;DHT22;9453;50.294;18.644;2023-06-26T17:37:20;27.00;54.10
18648;DHT22;9453;50.294;18.644;2023-06-26T17:39:49;26.90;54.50
18648;DHT22;9453;50.294;18.644;2023-06-26T17:42:16;26.80;55.40
18648;DHT22;9453;50.294;18.644;2023-06-26T17:44:43;26.70;55.40
18648;DHT22;9453;50.294;18.644;2023-06-26T17:47:10;26.60;56.00
18648;DHT22;9453;50.294;18.644;2023-06-26T17:49:38;26.50;56.80
18648;DHT22;9453;50.294;18.644;2023-06-26T17:52:06;26.40;57.20
18648;DHT22;9453;50.294;18.644;2023-06-26T17:54:34;26.40;57.90
18648;DHT22;9453;50.294;18.644;2023-06-26T17:57:01;26.30;58.40
18648;DHT22;9453;50.294;18.644;2023-06-26T17:59:28;26.20;59.10
18648;DHT22;9453;50.294;18.644;2023-06-26T18:01:55;26.20;59.30
18648;DHT22;9453;50.294;18.644;2023-06-26T18:04:24;26.10;59.50
18648;DHT22;9453;50.294;18.644;2023-06-26T18:06:52;26.00;59.30
18648;DHT22;9453;50.294;18.644;2023-06-26T18:09:19;25.90;59.40
18648;DHT22;9453;50.294;18.644;2023-06-26T18:11:46;25.80;59.70
18648;DHT22;9453;50.294;18.644;2023-06-26T18:14:13;25.70;60.00
18648;DHT22;9453;50.294;18.644;2023-06-26T18:16:40;25.60;60.50
18648;DHT22;9453;50.294;18.644;2023-06-26T18:19:07;25.50;61.10
18648;DHT22;9453;50.294;18.644;2023-06-26T18:21:34;25.40;61.70
18648;DHT22;9453;50.294;18.644;2023-06-26T18:24:03;25.30;62.00
18648;DHT22;9453;50.294;18.644;2023-06-26T18:26:30;25.20;62.40
18648;DHT22;9453;50.294;18.644;2023-06-26T18:28:58;25.10;62.60
18648;DHT22;9453;50.294;18.644;2023-06-26T18:31:25;25.00;63.00
18648;DHT22;9453;50.294;18.644;2023-06-26T18:33:52;24.90;63.30
18648;DHT22;9453;50.294;18.644;2023-06-26T18:36:19;24.90;63.60
18648;DHT22;9453;50.294;18.644;2023-06-26T18:38:46;24.80;64.00
18648;DHT22;9453;50.294;18.644;2023-06-26T18:41:14;24.70;64.30
18648;DHT22;9453;50.294;18.644;2023-06-26T18:43:41;24.60;64.50
18648;DHT22;9453;50.294;18.644;2023-06-26T18:46:11;24.50;64.90
18648;DHT22;9453;50.294;18.644;2023-06-26T18:48:38;24.40;65.40
18648;DHT22;9453;50.294;18.644;2023-06-26T18:51:05;24.40;65.90
18648;DHT22;9453;50.294;18.644;2023-06-26T18:53:32;24.30;65.80
18648;DHT22;9453;50.294;18.644;2023-06-26T18:55:59;24.30;65.90
18648;DHT22;9453;50.294;18.644;2023-06-26T18:58:27;24.20;66.10
18648;DHT22;9453;50.294;18.644;2023-06-26T19:00:54;24.10;66.40
18648;DHT22;9453;50.294;18.644;2023-06-26T19:03:23;24.00;66.80
18648;DHT22;9453;50.294;18.644;2023-06-26T19:05:50;23.90;66.70
18648;DHT22;9453;50.294;18.644;2023-06-26T19:08:17;23.80;67.40
18648;DHT22;9453;50.294;18.644;2023-06-26T19:10:44;23.80;68.00
18648;DHT22;9453;50.294;18.644;2023-06-26T19:13:12;23.70;68.30
18648;DHT22;9453;50.294;18.644;2023-06-26T19:15:40;23.60;68.40
18648;DHT22;9453;50.294;18.644;2023-06-26T19:18:08;23.50;68.70
18648;DHT22;9453;50.294;18.644;2023-06-26T19:20:35;23.40;69.30
18648;DHT22;9453;50.294;18.644;2023-06-26T19:23:02;23.40;70.00
18648;DHT22;9453;50.294;18.644;2023-06-26T19:25:28;23.30;70.20
18648;DHT22;9453;50.294;18.644;2023-06-26T19:27:55;23.20;70.40
18648;DHT22;9453;50.294;18.644;2023-06-26T19:30:22;23.20;70.60
18648;DHT22;9453;50.294;18.644;2023-06-26T19:32:51;23.10;70.80
18648;DHT22;9453;50.294;18.644;2023-06-26T19:35:18;23.00;72.10